Time;durP1;ratioP1;P1;durP2;ratioP2;P2;SDS_P1;SDS_P2;PMS_P1;PMS_P2;Temp;Humidity;BMP_temperature;BMP_pressure;BME280_temperature;BME280_humidity;BME280_pressure;Samples;Min_cycle;Max_cycle;Signal;HPM_P1;HPM_P2
2022/08/07 00:03:27;;;;;;;11.55;8.55;;;;;;;15.20;87.60;102510.34;20979378;28;20439;-61
2022/08/07 00:13:57;;;;;;;13.67;7.97;;;;;;;15.06;87.34;102502.41;20968299;28;20127;-61
2022/08/07 00:24:19;;;;;;;12.80;8.95;;;;;;;14.67;88.51;102499.38;20965889;28;20068;-60
2022/08/07 00:34:48;;;;;;;13.18;9.63;;;;;;;14.86;88.12;102491.34;20966860;28;20074;-60
2022/08/07 00:45:11;;;;;;;11.90;9.25;;;;;;;14.92;87.35;102493.59;20965195;28;20570;-60
2022/08/07 00:55:37;;;;;;;12.07;8.98;;;;;;;14.61;89.09;102483.97;20976418;28;20045;-61
2022/08/07 01:06:19;;;;;;;13.88;9.00;;;;;;;14.27;91.52;102485.00;20969260;28;20102;-61
2022/08/07 01:16:43;;;;;;;13.93;8.25;;;;;;;14.49;88.55;102479.38;20962201;28;20040;-62
2022/08/07 01:27:08;;;;;;;14.88;9.35;;;;;;;14.32;89.60;102480.38;20962953;28;20053;-61
2022/08/07 01:37:40;;;;;;;11.98;9.13;;;;;;;14.17;90.70;102475.94;20960872;28;20489;-61
2022/08/07 01:48:03;;;;;;;12.45;9.10;;;;;;;14.20;89.73;102476.63;20961778;28;20047;-60
2022/08/07 01:58:53;;;;;;;11.07;8.32;;;;;;;13.95;91.99;102464.88;20953305;28;20520;-61
2022/08/07 02:09:19;;;;;;;14.73;9.10;;;;;;;13.56;93.45;102466.91;20973011;28;20056;-61
2022/08/07 02:20:03;;;;;;;12.48;9.05;;;;;;;13.91;92.17;102453.66;20959865;28;20049;-61
2022/08/07 02:30:39;;;;;;;12.88;8.85;;;;;;;13.95;92.99;102454.38;20954981;28;20056;-61
2022/08/07 02:41:02;;;;;;;13.15;9.13;;;;;;;13.81;92.70;102441.97;20959110;28;20402;-61
2022/08/07 02:51:28;;;;;;;17.83;9.52;;;;;;;13.68;93.23;102450.56;20957500;28;20408;-61
2022/08/07 03:02:11;;;;;;;16.60;9.05;;;;;;;13.86;90.67;102441.72;20958633;28;20044;-61
2022/08/07 03:12:36;;;;;;;16.30;9.15;;;;;;;13.64;91.37;102442.00;20967368;28;20045;-60
2022/08/07 03:22:58;;;;;;;10.85;8.63;;;;;;;13.49;91.96;102449.81;20986596;28;20045;-61
2022/08/07 03:33:20;;;;;;;12.30;8.70;;;;;;;12.94;94.22;102450.84;20987935;28;20431;-60
2022/08/07 03:43:42;;;;;;;16.50;9.55;;;;;;;13.47;92.06;102451.66;20982127;28;20039;-60
2022/08/07 03:54:17;;;;;;;12.93;8.90;;;;;;;13.33;92.71;102448.88;20977993;28;20048;-61
2022/08/07 04:04:59;;;;;;;15.18;9.38;;;;;;;12.98;94.31;102449.75;20983098;28;20048;-61
2022/08/07 04:15:21;;;;;;;;;;;;;;;13.36;91.94;102459.22;20992048;28;20051;-61
2022/08/07 04:25:45;;;;;;;13.30;8.98;;;;;;;13.26;94.40;102457.97;20972883;28;19947;-61
2022/08/07 04:36:09;;;;;;;13.07;9.15;;;;;;;13.38;94.02;102466.97;20983028;28;20075;-61
2022/08/07 04:46:34;;;;;;;;;;;;;;;13.47;93.73;102470.81;20970542;28;20044;-61
2022/08/07 04:57:31;;;;;;;12.88;8.95;;;;;;;13.69;92.21;102478.44;20976941;28;19924;-61
2022/08/07 05:08:25;;;;;;;16.55;9.73;;;;;;;13.94;92.27;102473.66;20959254;28;20493;-61
2022/08/07 05:19:12;;;;;;;15.18;9.45;;;;;;;13.97;93.19;102473.50;20976206;28;20052;-62
2022/08/07 05:29:38;;;;;;;14.57;9.32;;;;;;;14.27;91.78;102482.38;20965317;28;20417;-65
2022/08/07 05:40:14;;;;;;;16.52;10.45;;;;;;;14.50;91.27;102491.56;20960821;28;20044;-61
2022/08/07 05:50:40;;;;;;;19.58;11.30;;;;;;;14.83;89.29;102484.47;20960351;28;20485;-61
2022/08/07 06:01:09;;;;;;;19.25;11.20;;;;;;;15.47;83.51;102482.50;20957588;28;20049;-61
2022/08/07 06:11:33;;;;;;;15.77;9.73;;;;;;;15.75;82.63;102493.09;20961436;28;20083;-62
2022/08/07 06:21:56;;;;;;;13.85;9.02;;;;;;;16.00;80.01;102494.19;20961557;28;20057;-61
2022/08/07 06:32:36;;;;;;;16.08;8.63;;;;;;;16.26;78.91;102500.50;20977620;28;20040;-61
2022/08/07 06:43:02;;;;;;;11.02;7.65;;;;;;;16.60;76.87;102496.53;20944705;28;20041;-61
2022/08/07 06:53:28;;;;;;;11.00;7.20;;;;;;;17.17;75.32;102482.28;20954050;28;20044;-61
2022/08/07 07:04:12;;;;;;;9.75;7.07;;;;;;;17.41;71.48;102480.69;20973218;28;20106;-61
2022/08/07 07:15:02;;;;;;;11.68;7.47;;;;;;;17.59;72.94;102485.56;20950232;28;20048;-61
2022/08/07 07:25:29;;;;;;;12.88;7.47;;;;;;;17.82;73.19;102491.91;20962954;28;20124;-61
2022/08/07 07:36:11;;;;;;;9.48;7.20;;;;;;;17.99;72.74;102495.09;20957566;28;20045;-61
2022/08/07 07:46:39;;;;;;;9.10;6.70;;;;;;;18.35;70.77;102494.34;20953365;28;20044;-62
2022/08/07 07:57:20;;;;;;;9.83;6.53;;;;;;;18.53;68.82;102486.00;20980628;28;21264;-62
2022/08/07 08:08:02;;;;;;;7.53;5.40;;;;;;;18.69;68.14;102471.56;20956920;28;20052;-62
2022/08/07 08:18:26;;;;;;;9.27;5.88;;;;;;;18.77;67.30;102461.31;20966138;28;20051;-61
2022/08/07 08:28:50;;;;;;;7.35;4.70;;;;;;;19.18;65.74;102453.00;20965276;28;20388;-61
2022/08/07 08:39:13;;;;;;;8.15;4.75;;;;;;;19.08;66.15;102452.78;20962662;28;20041;-62
2022/08/07 08:49:45;;;;;;;7.30;5.00;;;;;;;19.40;64.14;102448.63;20943364;28;20505;-61
2022/08/07 09:00:29;;;;;;;5.75;4.75;;;;;;;19.86;61.51;102441.50;20959399;28;20052;-66
2022/08/07 09:11:14;;;;;;;6.10;4.72;;;;;;;19.74;59.61;102447.75;20972476;28;20057;-65
2022/08/07 09:22:02;;;;;;;6.60;4.80;;;;;;;19.80;60.45;102432.25;20971844;28;20041;-66
2022/08/07 09:32:52;;;;;;;6.68;4.90;;;;;;;20.31;58.86;102432.63;20950860;28;20044;-67
2022/08/07 09:43:32;;;;;;;5.50;4.80;;;;;;;20.44;57.44;102429.72;20951201;28;20401;-64
2022/08/07 09:54:25;;;;;;;7.85;4.35;;;;;;;20.56;57.65;102410.19;20972669;28;20048;-65
2022/08/07 10:05:01;;;;;;;6.50;4.55;;;;;;;21.03;57.04;102393.91;20974067;28;20047;-64
2022/08/07 10:15:56;;;;;;;7.97;4.60;;;;;;;21.43;54.89;102394.88;20963904;28;20051;-64
2022/08/07 10:26:44;;;;;;;8.32;4.20;;;;;;;21.21;53.97;102384.41;20955847;28;20094;-64
2022/08/07 10:37:27;;;;;;;7.22;4.43;;;;;;;21.20;57.71;102385.38;20949914;28;20044;-64
2022/08/07 10:48:23;;;;;;;5.57;3.45;;;;;;;22.53;50.17;102370.91;20951254;28;20057;-65
2022/08/07 10:59:11;;;;;;;8.07;5.00;;;;;;;21.82;51.75;102359.66;20967583;28;20041;-66
2022/08/07 11:09:46;;;;;;;5.75;3.70;;;;;;;21.40;52.63;102352.69;20960716;28;20119;-65
2022/08/07 11:20:42;;;;;;;3.40;3.00;;;;;;;22.59;47.46;102339.28;20950351;28;20049;-65
2022/08/07 11:31:37;;;;;;;6.20;3.13;;;;;;;23.71;44.38;102325.97;20957594;28;20052;-66
2022/08/07 11:42:13;;;;;;;4.10;3.10;;;;;;;23.46;46.45;102312.47;20949986;28;20044;-68
2022/08/07 11:53:01;;;;;;;3.23;2.93;;;;;;;23.41;46.25;102304.09;20959401;28;20139;-66
2022/08/07 12:03:25;;;;;;;3.60;2.67;;;;;;;23.61;47.02;102303.88;20952025;28;20610;-67
2022/08/07 12:14:15;;;;;;;4.82;3.10;;;;;;;22.98;46.29;102289.59;20963848;28;20068;-67
2022/08/07 12:36:04;;;;;;;3.33;2.70;;;;;;;22.51;50.58;102280.69;20963593;28;20126;-69
2022/08/07 12:46:39;;;;;;;3.33;2.83;;;;;;;23.21;45.72;102275.84;20944443;28;20416;-69
2022/08/07 12:57:03;;;;;;;5.90;3.00;;;;;;;23.16;46.99;102266.59;20949699;28;20490;-69
2022/08/07 13:07:45;;;;;;;3.73;2.77;;;;;;;23.27;46.61;102269.94;20953679;28;20464;-69
2022/08/07 13:18:44;;;;;;;4.00;2.70;;;;;;;22.90;45.14;102263.69;20955895;28;20489;-67
2022/08/07 13:29:20;;;;;;;3.33;2.63;;;;;;;22.91;44.27;102257.38;20965317;28;20044;-66
2022/08/07 13:39:51;;;;;;;4.47;2.75;;;;;;;22.75;43.62;102241.19;20951679;28;20044;-66
2022/08/07 13:50:34;;;;;;;5.15;2.70;;;;;;;22.92;46.23;102232.47;20955521;28;20067;-69
2022/08/07 14:01:18;;;;;;;4.47;2.50;;;;;;;22.91;46.82;102236.09;20954462;28;20648;-68
2022/08/07 14:11:48;;;;;;;4.10;2.38;;;;;;;22.94;46.84;102219.88;20992886;28;20049;-66
2022/08/07 14:22:29;;;;;;;4.93;2.50;;;;;;;22.59;47.76;102217.00;20962440;28;20543;-68
2022/08/07 14:32:58;;;;;;;4.50;2.50;;;;;;;23.01;46.22;102215.63;20946729;28;20075;-68
2022/08/07 14:43:22;;;;;;;8.90;2.50;;;;;;;22.82;47.33;102215.69;20950302;28;20504;-67
2022/08/07 14:54:04;;;;;;;4.82;2.67;;;;;;;22.63;50.68;102206.94;20949065;28;20052;-66
2022/08/07 15:04:47;;;;;;;2.60;2.35;;;;;;;22.66;45.89;102199.50;20932545;28;20057;-69
2022/08/07 15:15:22;;;;;;;1.98;1.80;;;;;;;23.36;43.78;102199.84;20961938;28;20044;-69
2022/08/07 15:25:45;;;;;;;;;;;;;;;23.07;44.37;102192.97;20948335;28;20045;-68
2022/08/07 15:36:10;;;;;;;3.10;2.33;;;;;;;23.47;50.13;102175.69;20951849;28;19964;-68
2022/08/07 15:46:34;;;;;;;1.92;1.55;;;;;;;23.47;45.92;102167.69;20943887;28;20037;-67
2022/08/07 15:57:11;;;;;;;2.75;2.00;;;;;;;23.00;45.50;102163.41;20952512;28;20046;-66
2022/08/07 16:08:02;;;;;;;3.05;1.50;;;;;;;22.95;47.42;102159.50;20940857;28;20548;-65
2022/08/07 16:19:11;;;;;;;2.45;1.60;;;;;;;23.38;45.15;102144.63;20943156;28;20044;-67
2022/08/07 16:30:02;;;;;;;1.60;1.50;;;;;;;23.88;43.08;102149.38;20952116;28;20048;-68
2022/08/07 16:41:05;;;;;;;1.85;1.50;;;;;;;23.79;44.92;102144.09;20951104;28;20044;-67
2022/08/07 16:52:15;;;;;;;1.80;1.40;;;;;;;23.84;45.22;102141.84;20956211;28;20040;-66
2022/08/07 17:03:23;;;;;;;4.10;1.70;;;;;;;23.96;46.49;102153.94;20792182;28;20723;-69
2022/08/07 17:14:40;;;;;;;2.10;1.70;;;;;;;23.16;51.08;102139.69;20968270;28;20045;-65
2022/08/07 17:25:13;;;;;;;3.03;1.65;;;;;;;23.10;50.49;102142.09;20933769;28;20041;-65
2022/08/07 17:35:44;;;;;;;3.63;1.80;;;;;;;22.94;50.47;102134.75;20939797;28;20594;-66
2022/08/07 17:46:21;;;;;;;2.83;1.85;;;;;;;22.98;50.58;102152.09;20941032;28;20667;-64
2022/08/07 17:57:04;;;;;;;4.13;2.77;;;;;;;22.75;52.79;102140.13;20946408;28;20149;-65
2022/08/07 18:07:43;;;;;;;2.58;1.90;;;;;;;22.38;54.77;102136.59;20960795;28;20040;-65
2022/08/07 18:18:13;;;;;;;5.85;2.00;;;;;;;21.93;56.40;102144.41;20947395;28;20057;-64
2022/08/07 18:29:13;;;;;;;3.97;2.33;;;;;;;21.68;60.74;102163.53;20946950;28;20036;-63
2022/08/07 18:39:57;;;;;;;3.70;2.95;;;;;;;21.29;64.47;102175.00;20948995;28;20041;-66
2022/08/07 18:50:30;;;;;;;5.43;2.50;;;;;;;20.83;67.37;102193.19;20967602;28;20060;-66
2022/08/07 19:01:12;;;;;;;4.22;2.53;;;;;;;20.75;67.16;102200.94;20948975;28;20416;-66
2022/08/07 19:12:49;;;;;;;3.40;2.35;;;;;;;20.62;66.15;102210.06;20970407;28;20416;-66
2022/08/07 19:23:39;;;;;;;3.58;2.30;;;;;;;20.37;66.31;102220.22;20895179;28;20048;-67
2022/08/07 19:34:23;;;;;;;4.70;2.28;;;;;;;20.07;67.11;102222.75;20965221;28;20048;-66
2022/08/07 19:45:01;;;;;;;6.10;2.35;;;;;;;19.85;67.56;102239.50;20938323;28;20489;-67
2022/08/07 19:55:30;;;;;;;7.75;2.17;;;;;;;19.68;67.29;102247.06;20990926;28;20421;-66
2022/08/07 20:06:13;;;;;;;6.53;3.22;;;;;;;19.61;66.84;102256.50;20975122;28;20519;-66
2022/08/07 20:16:49;;;;;;;4.78;2.00;;;;;;;19.60;66.07;102254.81;20972327;28;20061;-66
2022/08/07 20:27:20;;;;;;;2.33;1.55;;;;;;;19.36;67.75;102248.78;20956430;28;20068;-67
2022/08/07 20:38:05;;;;;;;5.95;2.03;;;;;;;19.31;67.39;102258.91;20967802;28;20885;-67
2022/08/07 20:48:29;;;;;;;4.63;2.05;;;;;;;18.93;68.36;102258.31;20959005;28;20417;-67
2022/08/07 20:59:00;;;;;;;3.97;2.17;;;;;;;18.85;69.51;102260.72;20968994;28;20044;-66
2022/08/07 21:09:27;;;;;;;5.13;2.33;;;;;;;18.68;69.04;102253.22;20967366;28;20072;-68
2022/08/07 21:19:57;;;;;;;5.22;3.30;;;;;;;18.72;69.96;102259.97;20967282;28;20048;-65
2022/08/07 21:30:55;;;;;;;5.90;2.30;;;;;;;18.57;70.16;102261.13;20965678;28;20041;-64
2022/08/07 21:41:23;;;;;;;9.93;2.25;;;;;;;18.46;71.26;102271.66;20949896;28;20060;-64
2022/08/07 21:52:15;;;;;;;5.47;2.80;;;;;;;18.32;72.95;102270.97;20949967;28;20041;-65
2022/08/07 22:02:52;;;;;;;3.88;2.00;;;;;;;18.23;72.77;102266.38;20953838;28;20496;-64
2022/08/07 22:13:15;;;;;;;3.72;2.35;;;;;;;18.07;73.32;102278.13;20962777;28;20051;-65
2022/08/07 22:23:58;;;;;;;5.68;2.63;;;;;;;17.91;74.07;102288.09;20957249;28;20045;-65
2022/08/07 22:34:29;;;;;;;6.55;2.70;;;;;;;17.53;76.04;102280.28;20954765;28;20555;-64
2022/08/07 22:44:59;;;;;;;4.53;2.30;;;;;;;17.48;77.03;102287.66;20952757;28;20062;-66
2022/08/07 22:55:35;;;;;;;4.80;2.40;;;;;;;17.44;76.93;102285.34;20955547;28;20044;-65
2022/08/07 23:06:20;;;;;;;4.50;2.38;;;;;;;17.39;77.34;102287.47;20953583;28;20044;-64
2022/08/07 23:16:44;;;;;;;4.78;2.25;;;;;;;17.35;77.67;102285.16;20957760;28;20051;-64
2022/08/07 23:27:54;;;;;;;3.78;2.63;;;;;;;17.21;77.52;102288.69;20961408;28;20040;-64
2022/08/07 23:38:54;;;;;;;4.10;2.33;;;;;;;16.95;79.20;102289.63;20961200;28;20064;-64
2022/08/07 23:49:28;;;;;;;5.75;2.75;;;;;;;17.18;78.79;102285.44;20964170;28;20048;-64
